KAND

Anderson Regional Airport

Anderson, South Carolina, USA
METAR KAND 241332Z AUTO 05005KT 10SM BKN006 23/21 A3014 RMK AO2 CIG 003V008 T02280211
Observed Flight Rules
May-24 @ 13:32 UTC (23 minutes ago) Instrument Flight Rules
Wind Visibility Clouds
50° at 5 knots 10 miles
  • Broken at 600' AGL
Temperatures Readings
Current 23°C / 73°F
Dewpoint 21°C / 70°F
Humidity 89%
Altimeter 30.14" Hg
Pressure 1021 hPa
Elevation 239
METAR KAND 241332Z AUTO 05005KT 10SM BKN006 23/21 A3014 RMK AO2 CIG 003V008 T02280211
Observed Flight Rules
May-24 @ 13:32 UTC
(23 minutes ago)
IFR
Wind Visibility
50° at 5 knots 10 miles
Clouds
  • Broken at 600' AGL
Temperature Dewpoint
23°C / 73°F 21°C / 70°F
Humidity Altimeter Pressure
89% 30.14" Hg 1021 hPa